Cse Prosperity Expr. — 3EES5 — position and weather

sailwx.info

Track history (hours):
 
Tides and Currents Weather Stations Pressure Air Temp Water Temp Dewpoint Dewpoint Depression Visibility Wind Speed Wind Dir Waves Ship Positions

Cse Prosperity Expr.

Last reported at 2014-Jul-24 01:33 UTC. Time now 2014-Jul-24 01:55 UTC.
Position N 22°39' E 120°13'.

Length 168 m; draft 5.6 m.

Type: Cargo ship. MMSI: 371801000.

Date/timePositionNaut miles runAvg speedWind from/ knotsBaromVisibWave heightAir tempDewpointWater temp
2014-Jul-24 01:33N 22°39' E 120°13'5 4.8
2014-Jul-24 00:33N 22°36' E 120°18'0 0.0
2014-Jul-23 23:33N 22°36' E 120°18'0 0.0
2014-Jul-23 18:27N 22°36' E 120°18'0 0.0
2014-Jul-23 17:33N 22°36' E 120°18'0 0.0
2014-Jul-23 16:33N 22°36' E 120°18'0 0.0
2014-Jul-23 15:33N 22°36' E 120°18'0 0.0
2014-Jul-23 14:33N 22°36' E 120°18'0 0.0
2014-Jul-23 13:33N 22°36' E 120°18'0 0.0
2014-Jul-23 12:33N 22°36' E 120°18'0 0.0
2014-Jul-23 11:33N 22°36' E 120°18'0 0.0
2014-Jul-23 10:27N 22°36' E 120°18'0 0.0
2014-Jul-23 09:33N 22°36' E 120°18'0 0.0
2014-Jul-23 08:33N 22°36' E 120°18'0 0.0
2014-Jul-23 07:33N 22°36' E 120°18'0 0.0
2014-Jul-23 06:33N 22°36' E 120°18'0 0.0
2014-Jul-23 05:18N 22°36' E 120°18'0 0.0
2014-Jul-23 04:30N 22°36' E 120°18'0 0.0
2014-Jul-23 03:21N 22°36' E 120°18'0 0.0
2014-Jul-23 02:06N 22°36' E 120°18'0 0.0
2014-Jul-23 01:12N 22°36' E 120°18'0 0.0
2014-Jul-23 00:30N 22°36' E 120°18'0 0.0
2014-Jul-22 20:33N 22°36' E 120°18'0 0.0
2014-Jul-22 18:15N 22°36' E 120°18'0 0.0
2014-Jul-22 17:33N 22°36' E 120°18'0 0.0
2014-Jul-22 16:33N 22°36' E 120°18'0 0.0
2014-Jul-22 15:33N 22°36' E 120°18'0 0.0
2014-Jul-22 14:21N 22°36' E 120°18'0 0.0
2014-Jul-22 13:33N 22°36' E 120°18'0 0.0
2014-Jul-22 12:33N 22°36' E 120°18'0 0.0
2014-Jul-22 11:33N 22°36' E 120°18'0 0.0
2014-Jul-22 10:33N 22°36' E 120°18'0 0.0
2014-Jul-22 09:33N 22°36' E 120°18'0 0.0
2014-Jul-22 08:15N 22°36' E 120°18'0 0.0
2014-Jul-22 07:33N 22°36' E 120°18'0 0.0
2014-Jul-22 06:27N 22°36' E 120°18'0 0.0
2014-Jul-22 05:21N 22°36' E 120°18'0 0.0
2014-Jul-22 04:27N 22°36' E 120°18'0 0.0
2014-Jul-22 03:33N 22°36' E 120°18'0 0.0
2014-Jul-22 02:33N 22°36' E 120°18'0 0.0
2014-Jul-22 01:27N 22°36' E 120°18'3 2.7
2014-Jul-22 00:13N 22°37' E 120°14'4 6.6
2014-Jul-21 23:33N 22°40' E 120°10'1312.5
2014-Jul-21 22:33N 22°51' E 120°03'  
2014-Jul-17 22:33N 34°02' E 134°59'1212.3
2014-Jul-17 21:33N 34°13' E 135°04'3 2.5
2014-Jul-17 20:28N 34°14' E 135°07'0 0.0
2014-Jul-17 19:31N 34°14' E 135°07'0 0.0
2014-Jul-17 18:31N 34°14' E 135°07'0 0.0
2014-Jul-17 17:28N 34°14' E 135°07'0 0.0
2014-Jul-17 16:31N 34°14' E 135°07'0 0.0
2014-Jul-17 15:31N 34°14' E 135°07'0 0.0
2014-Jul-17 14:31N 34°14' E 135°07'0 0.0
2014-Jul-17 13:31N 34°14' E 135°07'0 0.0
2014-Jul-17 12:31N 34°14' E 135°07'0 0.0
2014-Jul-17 11:31N 34°14' E 135°07'0 0.0
2014-Jul-17 10:31N 34°14' E 135°07'0 0.0
2014-Jul-17 09:28N 34°14' E 135°07'0 0.0
2014-Jul-17 08:16N 34°14' E 135°07'0 0.0
2014-Jul-17 07:22N 34°14' E 135°07'0 0.0
2014-Jul-17 06:31N 34°14' E 135°07'0 0.0
2014-Jul-17 05:31N 34°14' E 135°07'0 0.0
2014-Jul-17 04:22N 34°14' E 135°07'0 0.0
2014-Jul-17 03:31N 34°14' E 135°07'0 0.0
2014-Jul-17 02:31N 34°14' E 135°07'0 0.0
2014-Jul-17 01:31N 34°14' E 135°07'0 0.0
2014-Jul-17 00:31N 34°14' E 135°07'0 0.0
2014-Jul-16 23:31N 34°14' E 135°07'0 0.0
2014-Jul-16 22:31N 34°14' E 135°07'0 0.0
2014-Jul-16 21:31N 34°14' E 135°07'0 0.0
2014-Jul-16 20:31N 34°14' E 135°07'0 0.0
2014-Jul-16 19:31N 34°14' E 135°07'0 0.0
2014-Jul-16 18:28N 34°14' E 135°07'0 0.0
2014-Jul-16 17:28N 34°14' E 135°07'0 0.0
2014-Jul-16 16:28N 34°14' E 135°07'0 0.0
2014-Jul-16 15:31N 34°14' E 135°07'0 0.0
2014-Jul-16 14:31N 34°14' E 135°07'0 0.0
2014-Jul-16 13:31N 34°14' E 135°07'0 0.0
2014-Jul-16 12:28N 34°14' E 135°07'0 0.0
2014-Jul-16 11:28N 34°14' E 135°07'0 0.0
2014-Jul-16 10:31N 34°14' E 135°07'0 0.0
2014-Jul-16 09:28N 34°14' E 135°07'0 0.0
2014-Jul-16 08:31N 34°14' E 135°07'0 0.0
2014-Jul-16 07:31N 34°14' E 135°07'0 0.0
2014-Jul-16 06:28N 34°14' E 135°07'0 0.0
2014-Jul-16 05:28N 34°14' E 135°07'0 0.0
2014-Jul-16 04:28N 34°14' E 135°07'0 0.0
2014-Jul-16 03:28N 34°14' E 135°07'0 0.0
2014-Jul-16 02:28N 34°14' E 135°07'0 0.0
2014-Jul-16 01:31N 34°14' E 135°07'0 0.0
2014-Jul-16 00:28N 34°14' E 135°07'0 0.0
2014-Jul-15 23:31N 34°14' E 135°07'0 0.0
2014-Jul-15 22:31N 34°14' E 135°07'0 0.0
2014-Jul-15 21:31N 34°14' E 135°07'0 0.0
2014-Jul-15 20:31N 34°14' E 135°07'0 0.0
2014-Jul-15 19:31N 34°14' E 135°07'0 0.0
2014-Jul-15 18:31N 34°14' E 135°07'0 0.0
2014-Jul-15 17:31N 34°14' E 135°07'0 0.0
2014-Jul-15 16:31N 34°14' E 135°07'0 0.0
2014-Jul-15 15:31N 34°14' E 135°07'0 0.0
2014-Jul-15 14:31N 34°14' E 135°07'0 0.0
2014-Jul-15 13:31N 34°14' E 135°07'0 0.0
2014-Jul-15 12:31N 34°14' E 135°07'0 0.0
2014-Jul-15 11:31N 34°14' E 135°07'0 0.0
2014-Jul-15 10:28N 34°14' E 135°07'0 0.0
2014-Jul-15 09:31N 34°14' E 135°07'0 0.0
2014-Jul-15 08:31N 34°14' E 135°07'0 0.0
2014-Jul-15 07:31N 34°14' E 135°07'0 0.0
2014-Jul-15 06:31N 34°14' E 135°07'0 0.0
2014-Jul-15 05:28N 34°14' E 135°07'0 0.0
2014-Jul-15 04:31N 34°14' E 135°07'0 0.0
2014-Jul-15 03:28N 34°14' E 135°07'0 0.0
2014-Jul-15 02:31N 34°14' E 135°07'0 0.0
2014-Jul-15 01:31N 34°14' E 135°07'0 0.0
2014-Jul-15 00:31N 34°14' E 135°07'0 0.0
2014-Jul-14 23:31N 34°14' E 135°07'0 0.0
2014-Jul-14 22:31N 34°14' E 135°07'0 0.0
2014-Jul-14 21:31N 34°14' E 135°07'0 0.0
2014-Jul-14 20:31N 34°14' E 135°07'0 0.0
2014-Jul-14 19:28N 34°14' E 135°07'0 0.0
2014-Jul-14 18:31N 34°14' E 135°07'0 0.0
2014-Jul-14 17:31N 34°14' E 135°07'0 0.0
2014-Jul-14 16:31N 34°14' E 135°07'0 0.0
2014-Jul-14 15:31N 34°14' E 135°07'0 0.0
2014-Jul-14 14:31N 34°14' E 135°07'0 0.0
2014-Jul-14 13:31N 34°14' E 135°07'0 0.0
2014-Jul-14 12:31N 34°14' E 135°07'0 0.0
2014-Jul-14 11:31N 34°14' E 135°07'0 0.0
2014-Jul-14 10:31N 34°14' E 135°07'0 0.0
2014-Jul-14 09:29N 34°14' E 135°07'2 2.0
2014-Jul-14 08:31N 34°14' E 135°05'0 0.0
2014-Jul-14 07:31N 34°14' E 135°05'0 0.0
2014-Jul-14 06:28N 34°14' E 135°05'0 0.0
2014-Jul-14 05:31N 34°14' E 135°05'0 0.0
2014-Jul-14 04:31N 34°14' E 135°05'0 0.1
2014-Jul-14 03:31N 34°14' E 135°05'0 0.0
2014-Jul-14 02:28N 34°14' E 135°05'  
Track history (hours):
 
Tides and Currents Weather Stations Pressure Air Temp Water Temp Dewpoint Dewpoint Depression Visibility Wind Speed Wind Dir Waves Ship Positions

Cse Prosperity Expr.

Last reported at 2014-Jul-24 01:33 UTC. Time now 2014-Jul-24 01:55 UTC.
Position N 22°39' E 120°13'.

Length 168 m; draft 5.6 m.

Type: Cargo ship. MMSI: 371801000.

Date/timePositionNaut miles runAvg speedWind from/ knotsBaromVisibWave heightAir tempDewpointWater temp
2014-Jul-24 01:33N 22°39' E 120°13'5 4.8
2014-Jul-24 00:33N 22°36' E 120°18'0 0.0
2014-Jul-23 23:33N 22°36' E 120°18'0 0.0
2014-Jul-23 18:27N 22°36' E 120°18'0 0.0
2014-Jul-23 17:33N 22°36' E 120°18'0 0.0
2014-Jul-23 16:33N 22°36' E 120°18'0 0.0
2014-Jul-23 15:33N 22°36' E 120°18'0 0.0
2014-Jul-23 14:33N 22°36' E 120°18'0 0.0
2014-Jul-23 13:33N 22°36' E 120°18'0 0.0
2014-Jul-23 12:33N 22°36' E 120°18'0 0.0
2014-Jul-23 11:33N 22°36' E 120°18'0 0.0
2014-Jul-23 10:27N 22°36' E 120°18'0 0.0
2014-Jul-23 09:33N 22°36' E 120°18'0 0.0
2014-Jul-23 08:33N 22°36' E 120°18'0 0.0
2014-Jul-23 07:33N 22°36' E 120°18'0 0.0
2014-Jul-23 06:33N 22°36' E 120°18'0 0.0
2014-Jul-23 05:18N 22°36' E 120°18'0 0.0
2014-Jul-23 04:30N 22°36' E 120°18'0 0.0
2014-Jul-23 03:21N 22°36' E 120°18'0 0.0
2014-Jul-23 02:06N 22°36' E 120°18'0 0.0
2014-Jul-23 01:12N 22°36' E 120°18'0 0.0
2014-Jul-23 00:30N 22°36' E 120°18'0 0.0
2014-Jul-22 20:33N 22°36' E 120°18'0 0.0
2014-Jul-22 18:15N 22°36' E 120°18'0 0.0
2014-Jul-22 17:33N 22°36' E 120°18'0 0.0
2014-Jul-22 16:33N 22°36' E 120°18'0 0.0
2014-Jul-22 15:33N 22°36' E 120°18'0 0.0
2014-Jul-22 14:21N 22°36' E 120°18'0 0.0
2014-Jul-22 13:33N 22°36' E 120°18'0 0.0
2014-Jul-22 12:33N 22°36' E 120°18'0 0.0
2014-Jul-22 11:33N 22°36' E 120°18'0 0.0
2014-Jul-22 10:33N 22°36' E 120°18'0 0.0
2014-Jul-22 09:33N 22°36' E 120°18'0 0.0
2014-Jul-22 08:15N 22°36' E 120°18'0 0.0
2014-Jul-22 07:33N 22°36' E 120°18'0 0.0
2014-Jul-22 06:27N 22°36' E 120°18'0 0.0
2014-Jul-22 05:21N 22°36' E 120°18'0 0.0
2014-Jul-22 04:27N 22°36' E 120°18'0 0.0
2014-Jul-22 03:33N 22°36' E 120°18'0 0.0
2014-Jul-22 02:33N 22°36' E 120°18'0 0.0
2014-Jul-22 01:27N 22°36' E 120°18'3 2.7
2014-Jul-22 00:13N 22°37' E 120°14'4 6.6
2014-Jul-21 23:33N 22°40' E 120°10'1312.5
2014-Jul-21 22:33N 22°51' E 120°03'  
2014-Jul-17 22:33N 34°02' E 134°59'1212.3
2014-Jul-17 21:33N 34°13' E 135°04'3 2.5
2014-Jul-17 20:28N 34°14' E 135°07'0 0.0
2014-Jul-17 19:31N 34°14' E 135°07'0 0.0
2014-Jul-17 18:31N 34°14' E 135°07'0 0.0
2014-Jul-17 17:28N 34°14' E 135°07'0 0.0
2014-Jul-17 16:31N 34°14' E 135°07'0 0.0
2014-Jul-17 15:31N 34°14' E 135°07'0 0.0
2014-Jul-17 14:31N 34°14' E 135°07'0 0.0
2014-Jul-17 13:31N 34°14' E 135°07'0 0.0
2014-Jul-17 12:31N 34°14' E 135°07'0 0.0
2014-Jul-17 11:31N 34°14' E 135°07'0 0.0
2014-Jul-17 10:31N 34°14' E 135°07'0 0.0
2014-Jul-17 09:28N 34°14' E 135°07'0 0.0
2014-Jul-17 08:16N 34°14' E 135°07'0 0.0
2014-Jul-17 07:22N 34°14' E 135°07'0 0.0
2014-Jul-17 06:31N 34°14' E 135°07'0 0.0
2014-Jul-17 05:31N 34°14' E 135°07'0 0.0
2014-Jul-17 04:22N 34°14' E 135°07'0 0.0
2014-Jul-17 03:31N 34°14' E 135°07'0 0.0
2014-Jul-17 02:31N 34°14' E 135°07'0 0.0
2014-Jul-17 01:31N 34°14' E 135°07'0 0.0
2014-Jul-17 00:31N 34°14' E 135°07'0 0.0
2014-Jul-16 23:31N 34°14' E 135°07'0 0.0
2014-Jul-16 22:31N 34°14' E 135°07'0 0.0
2014-Jul-16 21:31N 34°14' E 135°07'0 0.0
2014-Jul-16 20:31N 34°14' E 135°07'0 0.0
2014-Jul-16 19:31N 34°14' E 135°07'0 0.0
2014-Jul-16 18:28N 34°14' E 135°07'0 0.0
2014-Jul-16 17:28N 34°14' E 135°07'0 0.0
2014-Jul-16 16:28N 34°14' E 135°07'0 0.0
2014-Jul-16 15:31N 34°14' E 135°07'0 0.0
2014-Jul-16 14:31N 34°14' E 135°07'0 0.0
2014-Jul-16 13:31N 34°14' E 135°07'0 0.0
2014-Jul-16 12:28N 34°14' E 135°07'0 0.0
2014-Jul-16 11:28N 34°14' E 135°07'0 0.0
2014-Jul-16 10:31N 34°14' E 135°07'0 0.0
2014-Jul-16 09:28N 34°14' E 135°07'0 0.0
2014-Jul-16 08:31N 34°14' E 135°07'0 0.0
2014-Jul-16 07:31N 34°14' E 135°07'0 0.0
2014-Jul-16 06:28N 34°14' E 135°07'0 0.0
2014-Jul-16 05:28N 34°14' E 135°07'0 0.0
2014-Jul-16 04:28N 34°14' E 135°07'0 0.0
2014-Jul-16 03:28N 34°14' E 135°07'0 0.0
2014-Jul-16 02:28N 34°14' E 135°07'0 0.0
2014-Jul-16 01:31N 34°14' E 135°07'0 0.0
2014-Jul-16 00:28N 34°14' E 135°07'0 0.0
2014-Jul-15 23:31N 34°14' E 135°07'0 0.0
2014-Jul-15 22:31N 34°14' E 135°07'0 0.0
2014-Jul-15 21:31N 34°14' E 135°07'0 0.0
2014-Jul-15 20:31N 34°14' E 135°07'0 0.0
2014-Jul-15 19:31N 34°14' E 135°07'0 0.0
2014-Jul-15 18:31N 34°14' E 135°07'0 0.0
2014-Jul-15 17:31N 34°14' E 135°07'0 0.0
2014-Jul-15 16:31N 34°14' E 135°07'0 0.0
2014-Jul-15 15:31N 34°14' E 135°07'0 0.0
2014-Jul-15 14:31N 34°14' E 135°07'0 0.0
2014-Jul-15 13:31N 34°14' E 135°07'0 0.0
2014-Jul-15 12:31N 34°14' E 135°07'0 0.0
2014-Jul-15 11:31N 34°14' E 135°07'0 0.0
2014-Jul-15 10:28N 34°14' E 135°07'0 0.0
2014-Jul-15 09:31N 34°14' E 135°07'0 0.0
2014-Jul-15 08:31N 34°14' E 135°07'0 0.0
2014-Jul-15 07:31N 34°14' E 135°07'0 0.0
2014-Jul-15 06:31N 34°14' E 135°07'0 0.0
2014-Jul-15 05:28N 34°14' E 135°07'0 0.0
2014-Jul-15 04:31N 34°14' E 135°07'0 0.0
2014-Jul-15 03:28N 34°14' E 135°07'0 0.0
2014-Jul-15 02:31N 34°14' E 135°07'0 0.0
2014-Jul-15 01:31N 34°14' E 135°07'0 0.0
2014-Jul-15 00:31N 34°14' E 135°07'0 0.0
2014-Jul-14 23:31N 34°14' E 135°07'0 0.0
2014-Jul-14 22:31N 34°14' E 135°07'0 0.0
2014-Jul-14 21:31N 34°14' E 135°07'0 0.0
2014-Jul-14 20:31N 34°14' E 135°07'0 0.0
2014-Jul-14 19:28N 34°14' E 135°07'0 0.0
2014-Jul-14 18:31N 34°14' E 135°07'0 0.0
2014-Jul-14 17:31N 34°14' E 135°07'0 0.0
2014-Jul-14 16:31N 34°14' E 135°07'0 0.0
2014-Jul-14 15:31N 34°14' E 135°07'0 0.0
2014-Jul-14 14:31N 34°14' E 135°07'0 0.0
2014-Jul-14 13:31N 34°14' E 135°07'0 0.0
2014-Jul-14 12:31N 34°14' E 135°07'0 0.0
2014-Jul-14 11:31N 34°14' E 135°07'0 0.0
2014-Jul-14 10:31N 34°14' E 135°07'0 0.0
2014-Jul-14 09:29N 34°14' E 135°07'2 2.0
2014-Jul-14 08:31N 34°14' E 135°05'0 0.0
2014-Jul-14 07:31N 34°14' E 135°05'0 0.0
2014-Jul-14 06:28N 34°14' E 135°05'0 0.0
2014-Jul-14 05:31N 34°14' E 135°05'0 0.0
2014-Jul-14 04:31N 34°14' E 135°05'0 0.1
2014-Jul-14 03:31N 34°14' E 135°05'0 0.0
2014-Jul-14 02:28N 34°14' E 135°05'  

Dump ship's entire track history